Time;durP1;ratioP1;P1;durP2;ratioP2;P2;SDS_P1;SDS_P2;PMS_P1;PMS_P2;Temp;Humidity;BMP_temperature;BMP_pressure;BME280_temperature;BME280_humidity;BME280_pressure;Samples;Min_cycle;Max_cycle;Signal;HPM_P1;HPM_P2
2022/12/10 00:01:33;;;;;;;55.28;45.05;;;;;;;-2.67;100.00;100919.81;5127187;29;20023;-65
2022/12/10 00:04:04;;;;;;;61.35;42.72;;;;;;;-2.65;100.00;100920.47;5126282;29;20093;-64
2022/12/10 00:06:36;;;;;;;56.83;45.15;;;;;;;-2.62;100.00;100920.13;5127199;29;20053;-66
2022/12/10 00:09:11;;;;;;;52.40;43.08;;;;;;;-2.62;100.00;100918.31;5127271;29;20511;-66
2022/12/10 00:11:42;;;;;;;58.53;42.83;;;;;;;-2.60;100.00;100923.44;5127030;29;20038;-66
2022/12/10 00:14:13;;;;;;;49.08;41.25;;;;;;;-2.59;100.00;100920.59;5126625;29;20491;-65
2022/12/10 00:16:44;;;;;;;59.67;42.83;;;;;;;-2.55;100.00;100921.06;5126715;29;20031;-66
2022/12/10 00:19:14;;;;;;;59.65;44.38;;;;;;;-2.54;100.00;100920.09;5127422;29;20070;-66
2022/12/10 00:21:45;;;;;;;66.38;45.60;;;;;;;-2.51;100.00;100932.97;5109485;29;20034;-65
2022/12/10 00:24:16;;;;;;;67.53;41.05;;;;;;;-2.54;100.00;100917.44;5126880;29;20062;-66
2022/12/10 00:26:46;;;;;;;67.60;46.40;;;;;;;-2.54;100.00;100918.25;5127175;29;20035;-66
2022/12/10 00:29:16;;;;;;;63.22;46.28;;;;;;;-2.54;100.00;100917.44;5109999;29;20615;-68
2022/12/10 00:31:47;;;;;;;51.95;41.58;;;;;;;-2.53;100.00;100924.38;5127454;29;20384;-66
2022/12/10 00:34:17;;;;;;;50.00;40.63;;;;;;;-2.55;100.00;100915.78;5127109;29;20062;-66
2022/12/10 00:36:48;;;;;;;57.63;46.15;;;;;;;-2.56;100.00;100914.97;5127069;29;20462;-64
2022/12/10 00:39:20;;;;;;;56.55;46.20;;;;;;;-2.57;100.00;100917.78;5109925;29;20035;-66
2022/12/10 00:41:50;;;;;;;58.45;40.97;;;;;;;-2.56;100.00;100908.84;5126251;28;20027;-66
2022/12/10 00:44:21;;;;;;;59.53;43.80;;;;;;;-2.70;100.00;100888.41;5126588;29;20510;-65
2022/12/10 00:46:51;;;;;;;52.13;40.22;;;;;;;-2.54;100.00;100912.97;5127056;29;20038;-66
2022/12/10 00:49:24;;;;;;;53.75;44.25;;;;;;;-2.53;100.00;100913.81;5126813;29;20420;-66
2022/12/10 00:51:54;;;;;;;64.70;45.70;;;;;;;-2.55;100.00;100898.09;5126198;29;20407;-65
2022/12/10 00:54:24;;;;;;;56.90;49.05;;;;;;;-2.52;100.00;100910.16;5126584;29;20106;-66
2022/12/10 00:56:55;;;;;;;64.38;45.40;;;;;;;-2.51;100.00;100911.81;5126648;29;20019;-66
2022/12/10 00:59:25;;;;;;;64.40;49.20;;;;;;;-2.52;100.00;100904.88;5126855;29;20027;-66
2022/12/10 01:01:56;;;;;;;50.95;41.13;;;;;;;-2.62;100.00;100898.97;5125762;29;20086;-69
2022/12/10 01:04:26;;;;;;;62.05;43.88;;;;;;;-2.52;100.00;100905.69;5125866;29;20399;-66
2022/12/10 01:06:57;;;;;;;62.42;43.90;;;;;;;-2.51;100.00;100917.09;5109077;29;20023;-66
2022/12/10 01:09:29;;;;;;;62.08;39.47;;;;;;;-2.56;100.00;100924.72;5126248;29;20031;-65
2022/12/10 01:12:01;;;;;;;66.80;42.35;;;;;;;-2.57;100.00;100918.59;5125854;29;20480;-65
2022/12/10 01:14:33;;;;;;;58.60;45.30;;;;;;;-2.64;100.00;100903.59;5108655;29;20538;-65
2022/12/10 01:17:05;;;;;;;56.08;45.45;;;;;;;-2.52;100.00;100920.75;5125779;29;20019;-65
2022/12/10 01:19:36;;;;;;;49.10;38.83;;;;;;;-2.55;100.00;100929.00;5125627;29;20392;-64
2022/12/10 01:22:06;;;;;;;57.65;44.85;;;;;;;-2.66;100.00;100914.34;5125196;29;20055;-66
2022/12/10 01:24:37;;;;;;;54.35;40.13;;;;;;;-2.55;100.00;100929.84;5125702;29;20045;-66
2022/12/10 01:27:07;;;;;;;51.78;42.05;;;;;;;-2.57;100.00;100938.94;5125615;29;20023;-66
2022/12/10 01:29:37;;;;;;;64.22;41.72;;;;;;;-2.56;100.00;100935.28;5125456;29;20504;-66
2022/12/10 01:32:08;;;;;;;47.10;41.33;;;;;;;-2.55;100.00;100942.22;5124837;29;20020;-67
2022/12/10 01:34:38;;;;;;;57.92;43.33;;;;;;;-2.55;100.00;100948.34;5125320;29;20098;-66
2022/12/10 01:37:08;;;;;;;51.42;42.67;;;;;;;-2.57;100.00;100950.31;5125379;29;20023;-64
2022/12/10 01:39:39;;;;;;;49.58;37.58;;;;;;;-2.55;100.00;100945.69;5130533;23;20045;-65
2022/12/10 01:42:12;;;;;;;50.47;38.38;;;;;;;-2.57;100.00;100950.31;5150288;28;20541;-66
2022/12/10 01:45:06;;;;;;;42.28;37.85;;;;;;;-2.55;100.00;100950.16;5165367;28;20031;-66
2022/12/10 01:47:36;;;;;;;55.80;41.22;;;;;;;-2.61;100.00;100938.47;5165057;28;20108;-63
2022/12/10 01:50:08;;;;;;;51.45;38.38;;;;;;;-2.56;100.00;100967.00;5165292;28;20035;-65
2022/12/10 01:52:39;;;;;;;60.75;45.38;;;;;;;-2.81;100.00;100922.13;5146779;28;20030;-65
2022/12/10 01:55:41;;;;;;;51.60;40.08;;;;;;;-2.56;100.00;100969.66;5165160;28;20029;-63
2022/12/10 01:58:12;;;;;;;49.75;40.22;;;;;;;-2.58;100.00;100969.81;5148348;28;20372;-64
2022/12/10 02:01:04;;;;;;;47.50;38.45;;;;;;;-2.56;100.00;100972.28;5165428;28;20022;-64
2022/12/10 02:03:49;;;;;;;46.33;40.08;;;;;;;-2.56;100.00;100974.94;5164741;28;20026;-64
2022/12/10 02:06:25;;;;;;;46.90;41.08;;;;;;;-2.53;100.00;100971.97;5165188;28;20026;-63
2022/12/10 02:09:35;;;;;;;45.08;40.35;;;;;;;-2.55;100.00;100969.50;5165598;28;20029;-64
2022/12/10 02:12:19;;;;;;;51.72;42.67;;;;;;;-2.51;100.00;100969.97;5144431;28;20064;-65
2022/12/10 02:15:06;;;;;;;57.75;41.70;;;;;;;-2.49;100.00;100968.81;5165045;28;20026;-64
2022/12/10 02:17:44;;;;;;;53.85;44.05;;;;;;;-2.45;100.00;100970.13;5164983;28;20033;-65
2022/12/10 02:20:29;;;;;;;57.67;44.30;;;;;;;-2.45;100.00;100970.13;5164819;28;20101;-66
2022/12/10 02:23:05;;;;;;;52.95;41.08;;;;;;;-2.46;100.00;100970.31;5146876;28;20038;-64
2022/12/10 02:25:51;;;;;;;54.70;44.92;;;;;;;-2.43;100.00;100977.91;5164758;28;20057;-65
2022/12/10 02:28:33;;;;;;;63.28;43.80;;;;;;;-2.41;100.00;100976.75;5164782;28;20490;-65
2022/12/10 02:31:05;;;;;;;56.47;43.65;;;;;;;-2.39;100.00;100971.28;5164518;28;20030;-66
2022/12/10 02:33:42;;;;;;;48.65;39.25;;;;;;;-2.40;100.00;100961.72;5163897;28;20026;-65
2022/12/10 02:36:14;;;;;;;46.33;41.40;;;;;;;-2.36;100.00;100981.53;5164297;28;20077;-65
2022/12/10 02:38:47;;;;;;;47.35;40.15;;;;;;;-2.35;100.00;100975.25;5164460;28;20030;-65
2022/12/10 02:41:23;;;;;;;48.50;42.60;;;;;;;-2.38;100.00;100983.53;5146770;28;20053;-66
2022/12/10 02:43:57;;;;;;;49.78;41.50;;;;;;;-2.37;100.00;100971.94;5163895;28;20022;-65
2022/12/10 02:46:29;;;;;;;56.65;41.78;;;;;;;-2.37;100.00;100966.66;5164507;28;20113;-66
2022/12/10 02:49:03;;;;;;;54.50;44.03;;;;;;;-2.38;100.00;100963.19;5164379;28;20333;-66
2022/12/10 02:51:33;;;;;;;51.65;41.22;;;;;;;-2.39;100.00;100942.19;5164401;28;20090;-64
2022/12/10 02:54:26;;;;;;;47.92;40.33;;;;;;;-2.41;100.00;100966.16;5163944;28;20109;-66
2022/12/10 02:57:03;;;;;;;47.38;39.30;;;;;;;-2.45;100.00;100948.16;5164287;28;20569;-64
2022/12/10 02:59:46;;;;;;;53.08;41.97;;;;;;;-2.40;100.00;100969.63;5164762;28;20090;-64
2022/12/10 03:02:36;;;;;;;58.58;44.40;;;;;;;-2.40;100.00;100964.34;5163430;28;20113;-66
2022/12/10 03:05:45;;;;;;;46.90;42.03;;;;;;;-2.38;100.00;100972.94;5164572;28;20026;-64
2022/12/10 03:08:24;;;;;;;49.83;42.67;;;;;;;-2.40;100.00;100977.56;5146888;28;20517;-66
2022/12/10 03:11:13;;;;;;;48.35;43.60;;;;;;;-2.42;100.00;100980.38;5163963;28;20034;-65
2022/12/10 03:14:16;;;;;;;49.10;38.17;;;;;;;-2.44;100.00;100969.16;5146263;28;20010;-65
2022/12/10 03:16:58;;;;;;;45.53;37.30;;;;;;;-2.43;100.00;100977.91;5142507;28;20278;-66
2022/12/10 03:19:45;;;;;;;46.70;41.50;;;;;;;-2.44;100.00;100981.53;5163973;28;20030;-65
2022/12/10 03:22:19;;;;;;;48.25;43.22;;;;;;;-2.46;100.00;100967.66;5146055;28;20026;-64
2022/12/10 03:24:51;;;;;;;50.35;42.92;;;;;;;-2.44;100.00;100974.44;5163926;28;20080;-68
2022/12/10 03:27:24;;;;;;;50.90;41.92;;;;;;;-2.44;100.00;100973.63;5164115;28;20023;-67
2022/12/10 03:29:58;;;;;;;57.90;44.30;;;;;;;-2.44;100.00;100966.50;5163901;28;20105;-66
2022/12/10 03:32:29;;;;;;;51.35;44.53;;;;;;;-2.43;100.00;100962.03;5163389;28;20022;-65
2022/12/10 03:35:01;;;;;;;49.30;43.58;;;;;;;-2.39;100.00;100973.94;5163662;28;20036;-65
2022/12/10 03:37:32;;;;;;;53.50;45.78;;;;;;;-2.40;100.00;100972.28;5163701;28;20034;-64
2022/12/10 03:40:05;;;;;;;53.38;42.65;;;;;;;-2.48;100.00;100965.19;5163414;28;20030;-68
2022/12/10 03:42:36;;;;;;;54.30;44.47;;;;;;;-2.40;100.00;100977.56;5163308;28;20093;-66
2022/12/10 03:45:07;;;;;;;45.72;40.85;;;;;;;-2.38;100.00;100965.84;5163572;28;20084;-65
2022/12/10 03:47:38;;;;;;;53.83;42.03;;;;;;;-2.40;100.00;100964.34;5163788;28;20018;-65
2022/12/10 03:50:09;;;;;;;53.17;44.05;;;;;;;-2.37;100.00;100974.59;5163408;28;20447;-65
2022/12/10 03:52:39;;;;;;;52.75;42.45;;;;;;;-2.36;100.00;100964.84;5162851;28;20100;-66
2022/12/10 03:55:10;;;;;;;55.72;41.75;;;;;;;-2.38;100.00;100960.53;5163559;28;20026;-66
2022/12/10 03:57:40;;;;;;;47.53;42.40;;;;;;;-2.40;100.00;100961.72;5163694;28;20097;-64
2022/12/10 04:00:11;;;;;;;51.63;45.28;;;;;;;-2.41;100.00;100960.06;5163564;28;20049;-63
2022/12/10 04:02:42;;;;;;;49.17;43.90;;;;;;;-2.40;100.00;100961.72;5163206;28;20473;-65
2022/12/10 04:05:12;;;;;;;50.83;45.03;;;;;;;-2.40;100.00;100940.56;5146259;28;20382;-64
2022/12/10 04:07:42;;;;;;;54.97;43.75;;;;;;;-2.47;100.00;100948.31;5163581;28;20037;-64
2022/12/10 04:10:13;;;;;;;65.25;47.20;;;;;;;-2.49;100.00;100947.66;5163613;28;20050;-64
2022/12/10 04:16:26;;;;;;;57.47;45.95;;;;;;;-2.47;100.00;100950.97;5163190;28;20027;-64
2022/12/10 04:18:27;;;;;;;57.72;42.70;;;;;;;-2.48;100.00;100959.91;5167445;28;20096;-64
2022/12/10 04:26:51;;;;;;;41.30;36.85;;;;;;;-2.56;100.00;100961.72;5167447;28;20037;-64
2022/12/10 04:29:25;;;;;;;48.40;42.17;;;;;;;-2.64;100.00;100959.13;5167723;28;20030;-65
2022/12/10 04:31:56;;;;;;;60.58;43.58;;;;;;;-2.60;100.00;100979.78;5166441;28;20057;-64
2022/12/10 04:34:27;;;;;;;52.45;38.47;;;;;;;-2.76;100.00;100956.81;5167181;28;20026;-65
2022/12/10 04:36:58;;;;;;;57.35;43.05;;;;;;;-2.60;100.00;100976.28;5149410;28;20034;-66
2022/12/10 04:39:29;;;;;;;54.03;43.20;;;;;;;-2.56;100.00;100985.50;5167008;28;20350;-64
2022/12/10 04:42:01;;;;;;;53.00;44.08;;;;;;;-2.70;100.00;100965.06;5166666;28;20034;-64
2022/12/10 04:44:32;;;;;;;53.92;43.22;;;;;;;-2.56;100.00;100981.06;5166596;28;20081;-67
2022/12/10 04:47:05;;;;;;;65.07;45.90;;;;;;;-2.57;100.00;100983.88;5166564;28;20478;-64
2022/12/10 04:49:36;;;;;;;60.65;48.33;;;;;;;-2.53;100.00;100993.13;5166504;28;20037;-65
2022/12/10 04:52:07;;;;;;;53.45;45.58;;;;;;;-2.57;100.00;100982.03;5166492;28;20026;-65
2022/12/10 04:54:38;;;;;;;55.47;43.70;;;;;;;-2.55;100.00;100993.28;5166305;28;20019;-66
2022/12/10 04:57:09;;;;;;;51.33;44.38;;;;;;;-2.49;100.00;100994.44;5166430;28;20398;-65
2022/12/10 04:59:39;;;;;;;58.22;45.47;;;;;;;-2.46;100.00;100997.56;5165862;28;20019;-64
2022/12/10 05:02:10;;;;;;;59.13;50.28;;;;;;;-2.43;100.00;100994.59;5165907;28;20022;-64
2022/12/10 05:04:40;;;;;;;64.10;50.85;;;;;;;-2.46;100.00;100994.94;5166397;28;20033;-67
2022/12/10 05:07:11;;;;;;;66.38;49.13;;;;;;;-2.44;100.00;100984.19;5166352;28;20053;-65
2022/12/10 05:09:41;;;;;;;57.55;48.05;;;;;;;-2.42;100.00;100996.25;5165962;28;20149;-64
2022/12/10 05:12:12;;;;;;;72.22;52.85;;;;;;;-2.45;100.00;100980.72;5165794;28;20488;-65
2022/12/10 05:14:42;;;;;;;55.95;43.22;;;;;;;-2.42;100.00;100980.38;5166212;28;20026;-64
2022/12/10 05:17:12;;;;;;;64.10;47.00;;;;;;;-2.38;100.00;100980.88;5166374;28;20049;-64
2022/12/10 05:19:43;;;;;;;69.22;49.45;;;;;;;-2.36;100.00;100981.53;5165721;28;20018;-63
2022/12/10 05:25:02;;;;;;;75.80;47.83;;;;;;;-2.42;100.00;100984.84;5166226;28;20038;-66
2022/12/10 05:27:33;;;;;;;65.50;46.97;;;;;;;-2.36;100.00;100983.34;5164738;28;20109;-67
2022/12/10 05:30:04;;;;;;;62.88;43.25;;;;;;;-2.38;100.00;100978.22;5166299;28;20086;-65
2022/12/10 05:32:35;;;;;;;65.22;47.50;;;;;;;-2.38;100.00;100981.69;5165917;28;20026;-67
2022/12/10 05:35:06;;;;;;;62.17;48.15;;;;;;;-2.37;100.00;100993.09;5165577;28;20142;-63
2022/12/10 05:37:37;;;;;;;66.28;44.15;;;;;;;-2.41;100.00;100986.50;5165969;28;20506;-65
2022/12/10 05:40:08;;;;;;;72.35;50.42;;;;;;;-2.38;100.00;100987.00;5165250;28;20041;-65
2022/12/10 05:42:38;;;;;;;59.15;49.13;;;;;;;-2.37;100.00;100987.81;5165104;28;20342;-63
2022/12/10 05:45:09;;;;;;;79.35;50.67;;;;;;;-2.36;100.00;100988.63;5165363;28;20079;-68
2022/12/10 05:47:39;;;;;;;75.40;50.88;;;;;;;-2.38;100.00;100997.56;5165253;28;20471;-66
2022/12/10 05:50:10;;;;;;;71.68;52.20;;;;;;;-2.38;100.00;100997.56;5165718;28;20026;-65
2022/12/10 05:52:40;;;;;;;67.25;49.22;;;;;;;-2.36;100.00;100994.75;5164747;28;20030;-65
2022/12/10 05:55:10;;;;;;;58.22;52.08;;;;;;;-2.38;100.00;100999.38;5165215;28;20033;-67
2022/12/10 05:57:41;;;;;;;92.25;49.60;;;;;;;-2.40;100.00;100998.72;5165389;28;20038;-65
2022/12/10 06:00:12;;;;;;;72.32;49.53;;;;;;;-2.38;100.00;101009.97;5147761;28;20026;-66
2022/12/10 06:02:42;;;;;;;63.70;54.72;;;;;;;-2.37;100.00;101003.69;5164492;28;20022;-67
2022/12/10 06:05:12;;;;;;;67.78;47.72;;;;;;;-2.36;100.00;100997.41;5165093;28;20026;-66
2022/12/10 06:07:43;;;;;;;68.13;54.00;;;;;;;-2.35;100.00;101006.16;5165234;28;20590;-65
2022/12/10 06:10:13;;;;;;;72.05;55.20;;;;;;;-2.37;100.00;101008.97;5165315;28;20077;-67
2022/12/10 06:12:44;;;;;;;70.93;51.83;;;;;;;-2.39;100.00;101005.66;5164643;28;20026;-67
2022/12/10 06:15:14;;;;;;;70.43;50.63;;;;;;;-2.35;100.00;101001.69;5165042;28;20050;-66
2022/12/10 06:17:45;;;;;;;79.05;52.13;;;;;;;-2.49;100.00;100973.28;5164281;28;20033;-65
2022/12/10 06:20:15;;;;;;;74.20;53.80;;;;;;;-2.32;100.00;100998.72;5164690;28;20022;-66
2022/12/10 06:22:45;;;;;;;71.28;54.38;;;;;;;-2.29;100.00;101001.00;5164650;28;20062;-66
2022/12/10 06:25:16;;;;;;;65.03;51.35;;;;;;;-2.29;100.00;101003.66;5165041;28;20018;-64
2022/12/10 06:27:47;;;;;;;73.35;51.95;;;;;;;-2.30;100.00;101004.63;5147651;28;20030;-65
2022/12/10 06:30:17;;;;;;;79.78;50.83;;;;;;;-2.27;100.00;101011.41;5155625;28;20387;-64
2022/12/10 06:32:47;;;;;;;86.13;50.63;;;;;;;-2.25;100.00;101027.94;5144453;28;20019;-65
2022/12/10 06:35:18;;;;;;;70.97;51.72;;;;;;;-2.28;100.00;101012.41;5127495;28;20026;-65
2022/12/10 06:37:49;;;;;;;87.03;56.35;;;;;;;-2.30;100.00;101014.38;5145057;28;20113;-63
2022/12/10 06:40:19;;;;;;;63.30;51.60;;;;;;;-2.32;100.00;101021.69;5144719;28;20042;-64
2022/12/10 06:42:52;;;;;;;94.32;51.22;;;;;;;-2.32;100.00;101014.59;5144773;28;20050;-66
2022/12/10 06:45:23;;;;;;;66.78;51.22;;;;;;;-2.33;100.00;101015.59;5145360;28;20029;-65
2022/12/10 06:47:53;;;;;;;77.75;51.10;;;;;;;-2.42;100.00;101011.28;5127760;28;20030;-65
2022/12/10 06:50:23;;;;;;;109.35;53.13;;;;;;;-2.35;100.00;101028.16;5145013;28;20490;-64
2022/12/10 06:52:54;;;;;;;87.63;51.80;;;;;;;-2.38;100.00;101034.59;5144705;28;20022;-66
2022/12/10 06:55:24;;;;;;;100.72;51.53;;;;;;;-2.36;100.00;101029.13;5144510;28;20368;-65
2022/12/10 06:57:54;;;;;;;88.28;51.08;;;;;;;-2.50;100.00;101012.13;5144369;28;20027;-66
2022/12/10 07:00:25;;;;;;;111.85;55.47;;;;;;;-2.36;100.00;101029.13;5144493;28;20081;-67
2022/12/10 07:02:55;;;;;;;99.53;53.50;;;;;;;-2.32;100.00;101026.97;5143944;28;20027;-67
2022/12/10 07:05:26;;;;;;;76.15;51.90;;;;;;;-2.31;100.00;101034.72;5144708;28;20110;-66
2022/12/10 07:07:56;;;;;;;68.68;50.45;;;;;;;-2.30;100.00;101049.59;5143928;28;20094;-67
2022/12/10 07:10:26;;;;;;;76.45;54.75;;;;;;;-2.30;100.00;101035.53;5144780;28;20019;-67
2022/12/10 07:12:57;;;;;;;93.15;52.92;;;;;;;-2.29;100.00;101037.19;5143937;28;20053;-66
2022/12/10 07:15:28;;;;;;;79.15;57.47;;;;;;;-2.42;100.00;101029.81;5145213;28;20055;-65
2022/12/10 07:17:58;;;;;;;101.80;55.30;;;;;;;-2.39;100.00;101043.53;5144440;28;20035;-67
2022/12/10 07:20:30;;;;;;;73.70;49.67;;;;;;;-2.38;100.00;101034.59;5142737;28;20447;-65
2022/12/10 07:23:00;;;;;;;78.40;50.08;;;;;;;-2.29;100.00;101043.31;5142418;28;20417;-65
2022/12/10 07:25:31;;;;;;;75.90;50.75;;;;;;;-2.27;100.00;101046.63;5144215;28;20027;-66
2022/12/10 07:28:02;;;;;;;73.75;50.00;;;;;;;-2.24;100.00;101048.94;5143997;28;20035;-66
2022/12/10 07:30:33;;;;;;;81.78;53.92;;;;;;;-2.21;100.00;101055.72;5143523;28;20026;-66
2022/12/10 07:33:03;;;;;;;86.45;49.78;;;;;;;-2.41;100.00;101020.88;5143113;28;20107;-68
2022/12/10 07:35:34;;;;;;;132.02;53.95;;;;;;;-2.30;100.00;101056.72;5126488;28;20557;-66
2022/12/10 07:38:04;;;;;;;111.22;55.05;;;;;;;-2.29;100.00;101068.94;5143328;28;20082;-69
2022/12/10 07:40:34;;;;;;;124.05;49.67;;;;;;;-2.30;100.00;101062.81;5165556;23;20050;-65
2022/12/10 07:43:05;;;;;;;99.20;54.50;;;;;;;-2.34;100.00;101061.53;5142672;28;20019;-65
2022/12/10 07:45:35;;;;;;;117.22;52.72;;;;;;;-2.31;100.00;101069.09;5143500;28;20050;-68
2022/12/10 07:48:06;;;;;;;83.38;53.28;;;;;;;-2.38;100.00;101055.75;5143459;28;20030;-64
2022/12/10 07:50:36;;;;;;;90.18;50.20;;;;;;;-2.30;100.00;101069.94;5143273;28;20422;-65
2022/12/10 07:53:07;;;;;;;105.18;56.08;;;;;;;-2.47;100.00;101042.69;5146762;28;20031;-65
2022/12/10 07:55:37;;;;;;;84.13;53.33;;;;;;;-2.33;100.00;101076.41;5147154;28;20077;-65
2022/12/10 07:58:07;;;;;;;78.72;68.68;;;;;;;-2.33;100.00;101067.66;5147314;28;20494;-65
2022/12/10 08:00:38;;;;;;;148.75;63.10;;;;;;;-2.31;100.00;101071.75;5147658;28;20364;-65
2022/12/10 08:03:08;;;;;;;77.10;52.47;;;;;;;-2.30;100.00;101083.16;5129263;28;20027;-65
2022/12/10 08:05:39;;;;;;;74.45;54.38;;;;;;;-2.28;100.00;101083.81;5147718;28;20173;-65
2022/12/10 08:08:09;;;;;;;103.47;53.95;;;;;;;-2.27;100.00;101088.94;5147809;28;20050;-66
2022/12/10 08:10:39;;;;;;;101.40;58.00;;;;;;;-2.39;100.00;101067.31;5130029;28;20018;-65
2022/12/10 08:13:10;;;;;;;96.32;56.47;;;;;;;-2.24;100.00;101082.50;5146943;28;20026;-65
2022/12/10 08:15:40;;;;;;;79.93;55.22;;;;;;;-2.22;100.00;101086.63;5147278;28;20034;-66
2022/12/10 08:18:10;;;;;;;91.00;54.00;;;;;;;-2.19;100.00;101096.06;5146945;28;20106;-65
2022/12/10 08:20:41;;;;;;;80.60;49.65;;;;;;;-2.15;100.00;101095.56;5147618;28;20394;-66
2022/12/10 08:23:11;;;;;;;99.57;57.15;;;;;;;-2.14;100.00;101094.56;5146014;28;20054;-66
2022/12/10 08:25:42;;;;;;;96.65;52.72;;;;;;;-2.13;100.00;101100.69;5146667;28;20033;-66
2022/12/10 08:28:12;;;;;;;71.30;53.97;;;;;;;-2.13;100.00;101112.09;5146860;28;20486;-66
2022/12/10 08:30:47;;;;;;;70.20;49.22;;;;;;;-2.12;100.00;101112.91;5129914;28;20483;-66
2022/12/10 08:33:17;;;;;;;86.43;57.30;;;;;;;-2.13;100.00;101111.25;5128906;28;20027;-65
2022/12/10 08:35:47;;;;;;;90.97;55.33;;;;;;;-2.16;100.00;101096.56;5147432;28;20101;-68
2022/12/10 08:38:18;;;;;;;75.70;56.92;;;;;;;-2.07;100.00;101100.84;5148414;28;20037;-67
2022/12/10 08:40:48;;;;;;;87.55;56.70;;;;;;;-2.05;100.00;101092.75;5147726;28;20253;-65
2022/12/10 08:43:19;;;;;;;102.47;52.83;;;;;;;-1.98;100.00;101109.56;5146854;28;20073;-66
2022/12/10 08:45:49;;;;;;;96.97;55.10;;;;;;;-1.98;100.00;101103.44;5146904;28;20030;-66
2022/12/10 08:48:19;;;;;;;95.78;51.30;;;;;;;-1.97;100.00;101110.41;5146616;28;20053;-66
2022/12/10 08:50:50;;;;;;;87.00;57.17;;;;;;;-1.99;100.00;101101.81;5146647;28;20022;-65
2022/12/10 08:53:20;;;;;;;68.40;53.17;;;;;;;-1.95;100.00;101111.88;5128489;28;20031;-66
2022/12/10 08:55:52;;;;;;;67.97;56.72;;;;;;;-1.92;100.00;101113.38;5146297;28;20023;-68
2022/12/10 08:58:22;;;;;;;82.70;54.10;;;;;;;-1.90;100.00;101121.97;5144188;28;20022;-66
2022/12/10 09:00:52;;;;;;;69.68;50.80;;;;;;;-2.10;100.00;101095.88;5127964;28;20019;-66
2022/12/10 09:03:23;;;;;;;79.07;55.70;;;;;;;-1.90;100.00;101119.31;5145345;28;20062;-67
2022/12/10 09:05:54;;;;;;;90.18;52.17;;;;;;;-1.87;100.00;101127.75;5129470;28;20057;-68
2022/12/10 09:08:24;;;;;;;79.72;58.50;;;;;;;-1.94;100.00;101120.66;5146638;28;20054;-66
2022/12/10 09:10:54;;;;;;;114.32;58.20;;;;;;;-1.81;100.00;101123.63;5146149;28;20030;-65
2022/12/10 09:13:25;;;;;;;114.55;54.65;;;;;;;-1.81;100.00;101127.09;5128218;28;20046;-65
2022/12/10 09:15:55;;;;;;;79.95;50.95;;;;;;;-1.86;100.00;101118.81;5128128;28;20130;-66
2022/12/10 09:18:26;;;;;;;125.65;60.75;;;;;;;-1.84;100.00;101126.59;5145843;28;20037;-66
2022/12/10 09:20:56;;;;;;;88.18;54.17;;;;;;;-1.85;100.00;101131.06;5146497;28;20027;-65
2022/12/10 09:23:27;;;;;;;123.57;59.72;;;;;;;-1.83;100.00;101133.53;5145954;28;20456;-66
2022/12/10 09:25:57;;;;;;;100.68;56.30;;;;;;;-1.84;100.00;101138.00;5146268;28;20085;-66
2022/12/10 09:28:27;;;;;;;127.97;58.38;;;;;;;-1.84;100.00;101148.59;5128483;28;20125;-65
2022/12/10 09:30:59;;;;;;;73.82;51.33;;;;;;;-1.84;100.00;101148.59;5145503;28;20030;-66
2022/12/10 09:33:31;;;;;;;67.75;48.70;;;;;;;-1.93;100.00;101125.78;5145165;28;20496;-65
2022/12/10 09:36:06;;;;;;;190.38;60.20;;;;;;;-1.81;100.00;101150.91;5128119;28;20027;-66
2022/12/10 09:38:39;;;;;;;102.47;50.35;;;;;;;-1.82;100.00;101159.03;5145381;28;20022;-66
2022/12/10 09:41:40;;;;;;;83.88;52.83;;;;;;;-1.82;100.00;101145.78;5145093;28;20031;-67
2022/12/10 09:44:21;;;;;;;115.60;55.00;;;;;;;-1.82;100.00;101148.44;5144455;28;20030;-63
2022/12/10 09:46:54;;;;;;;78.60;47.58;;;;;;;-1.97;100.00;101128.91;5145295;28;20033;-66
2022/12/10 09:49:49;;;;;;;87.30;49.05;;;;;;;-1.78;100.00;101149.75;5144817;28;20031;-65
2022/12/10 09:52:22;;;;;;;109.70;46.13;;;;;;;-1.76;100.00;101159.19;5127117;28;20022;-66
2022/12/10 09:55:05;;;;;;;76.82;50.45;;;;;;;-1.80;100.00;101151.75;5144843;28;20045;-65
2022/12/10 09:57:41;;;;;;;79.07;48.33;;;;;;;-1.70;100.00;101163.78;5145269;28;20033;-66
2022/12/10 10:00:19;;;;;;;70.25;48.88;;;;;;;-1.65;100.00;101162.44;5144905;28;20554;-66
2022/12/10 10:02:51;;;;;;;69.80;50.20;;;;;;;-1.74;100.00;101151.91;5144321;28;20450;-66
2022/12/10 10:05:26;;;;;;;65.40;43.20;;;;;;;-1.61;100.00;101161.94;5144625;28;20029;-67
2022/12/10 10:08:01;;;;;;;73.38;44.97;;;;;;;-1.55;100.00;101161.28;5144556;28;20035;-67
2022/12/10 10:10:37;;;;;;;89.55;47.00;;;;;;;-1.66;100.00;101147.56;5144777;28;20057;-66
2022/12/10 10:13:08;;;;;;;91.90;44.05;;;;;;;-1.60;100.00;101166.25;5143849;28;20029;-67
2022/12/10 10:15:43;;;;;;;57.40;44.35;;;;;;;-1.58;100.00;101163.44;5144048;28;20110;-67
2022/12/10 10:18:26;;;;;;;51.78;38.33;;;;;;;-1.50;100.00;101163.41;5144572;28;20077;-66
2022/12/10 10:20:57;;;;;;;45.30;38.75;;;;;;;-1.54;100.00;101155.00;5144493;28;20028;-67
2022/12/10 10:23:28;;;;;;;57.75;41.10;;;;;;;-1.52;100.00;101158.28;5143702;28;20022;-67
2022/12/10 10:25:58;;;;;;;99.85;44.70;;;;;;;-1.55;100.00;101161.28;5144191;28;20502;-67
2022/12/10 10:28:28;;;;;;;71.85;41.58;;;;;;;-1.46;100.00;101162.09;5144579;28;20502;-67
2022/12/10 10:30:59;;;;;;;60.28;40.00;;;;;;;-1.46;100.00;101167.38;5144225;28;20027;-67
2022/12/10 10:33:29;;;;;;;85.07;41.22;;;;;;;-1.44;100.00;101160.91;5143541;28;20025;-66
2022/12/10 10:36:00;;;;;;;105.82;45.33;;;;;;;-1.43;100.00;101159.06;5144238;28;20061;-67
2022/12/10 10:38:31;;;;;;;49.15;39.00;;;;;;;-1.45;100.00;101150.50;5144154;28;20049;-68
2022/12/10 10:41:04;;;;;;;60.00;41.15;;;;;;;-1.43;100.00;101159.91;5144484;28;20022;-67
2022/12/10 10:43:41;;;;;;;58.30;38.22;;;;;;;-1.44;100.00;101155.59;5143366;28;20027;-68
2022/12/10 10:46:18;;;;;;;61.13;36.75;;;;;;;-1.52;100.00;101142.41;5144059;28;20390;-67
2022/12/10 10:48:48;;;;;;;74.35;41.50;;;;;;;-1.42;100.00;101153.59;5143730;28;20030;-67
2022/12/10 10:51:23;;;;;;;52.28;39.65;;;;;;;-1.40;100.00;101141.03;5143967;28;20023;-67
2022/12/10 10:53:54;;;;;;;60.92;37.90;;;;;;;-1.31;100.00;101148.94;5143482;28;20395;-68
2022/12/10 10:56:42;;;;;;;75.28;37.08;;;;;;;-1.33;100.00;101148.28;5144018;28;20038;-67
2022/12/10 10:59:19;;;;;;;58.25;43.20;;;;;;;-1.25;100.00;101153.56;5143869;28;20101;-67
2022/12/10 11:01:55;;;;;;;60.58;46.42;;;;;;;-1.22;100.00;101161.19;5143759;28;20038;-67
2022/12/10 11:04:29;;;;;;;49.03;35.13;;;;;;;-1.18;100.00;101167.78;5143830;28;20549;-68
2022/12/10 11:07:02;;;;;;;49.25;38.70;;;;;;;-1.14;100.00;101158.47;5128315;28;20483;-69
2022/12/10 11:09:33;;;;;;;64.22;42.22;;;;;;;-1.12;100.00;101161.78;5144569;28;20022;-67
2022/12/10 11:12:32;;;;;;;60.38;39.65;;;;;;;-1.10;100.00;101152.66;5143739;28;20030;-70
2022/12/10 11:15:23;;;;;;;50.83;38.40;;;;;;;-1.17;100.00;101153.53;5143970;28;20027;-67
2022/12/10 11:17:55;;;;;;;44.30;35.60;;;;;;;-1.11;100.00;101148.34;5145357;28;20122;-68
2022/12/10 11:20:32;;;;;;;60.42;37.63;;;;;;;-1.06;100.00;101139.88;5145033;28;20037;-68
2022/12/10 11:23:10;;;;;;;57.70;37.00;;;;;;;-1.04;100.00;101141.38;5145330;28;20054;-69
2022/12/10 11:26:05;;;;;;;65.05;41.75;;;;;;;-0.96;100.00;101144.97;5149865;28;20026;-68
2022/12/10 11:28:51;;;;;;;56.33;40.65;;;;;;;-0.83;100.00;101143.41;5151883;28;20026;-68
2022/12/10 11:31:30;;;;;;;59.38;35.78;;;;;;;-0.78;100.00;101140.22;5151852;28;20082;-69
2022/12/10 11:34:24;;;;;;;47.05;31.25;;;;;;;-0.91;100.00;101140.81;5150706;28;20026;-67
2022/12/10 11:36:55;;;;;;;47.15;36.05;;;;;;;-0.89;100.00;101141.47;5132145;28;20031;-69
2022/12/10 11:39:33;;;;;;;39.28;32.17;;;;;;;-0.86;100.00;101134.97;5148034;28;20038;-68
2022/12/10 11:42:17;;;;;;;53.83;38.75;;;;;;;-0.86;100.00;101133.16;5147755;28;20598;-69